sensor_id;sensor_type;location;lat;lon;timestamp;pressure;altitude;pressure_sealevel;temperature;humidity
63739;BME280;68816;45.558;10.070;2023-10-09T00:01:52;100578.81;;;22.13;51.19
63739;BME280;68816;45.558;10.070;2023-10-09T00:04:18;100576.84;;;22.32;51.07
63739;BME280;68816;45.558;10.070;2023-10-09T00:06:45;100577.00;;;22.22;51.59
63739;BME280;68816;45.558;10.070;2023-10-09T00:09:12;100576.50;;;22.15;52.14
63739;BME280;68816;45.558;10.070;2023-10-09T00:11:49;100580.34;;;22.24;51.28
63739;BME280;68816;45.558;10.070;2023-10-09T00:14:22;100580.09;;;22.21;50.97
63739;BME280;68816;45.558;10.070;2023-10-09T00:16:47;100578.81;;;22.13;51.47
63739;BME280;68816;45.558;10.070;2023-10-09T00:19:21;100578.47;;;22.15;51.82
63739;BME280;68816;45.558;10.070;2023-10-09T00:21:59;100564.88;;;22.22;51.71
63739;BME280;68816;45.558;10.070;2023-10-09T00:24:32;100572.13;;;22.04;52.21
63739;BME280;68816;45.558;10.070;2023-10-09T00:26:58;100571.34;;;21.98;52.62
63739;BME280;68816;45.558;10.070;2023-10-09T00:29:44;100571.97;;;21.95;52.71
63739;BME280;68816;45.558;10.070;2023-10-09T00:32:14;100573.97;;;21.90;53.36
63739;BME280;68816;45.558;10.070;2023-10-09T00:34:53;100566.66;;;21.89;52.98
63739;BME280;68816;45.558;10.070;2023-10-09T00:37:23;100561.63;;;21.57;51.84
63739;BME280;68816;45.558;10.070;2023-10-09T00:39:51;100560.38;;;21.68;52.21
63739;BME280;68816;45.558;10.070;2023-10-09T00:42:26;100562.91;;;21.69;51.00
63739;BME280;68816;45.558;10.070;2023-10-09T00:44:59;100563.28;;;21.87;50.34
63739;BME280;68816;45.558;10.070;2023-10-09T00:47:35;100565.44;;;21.71;51.79
63739;BME280;68816;45.558;10.070;2023-10-09T00:50:09;100557.97;;;21.56;51.77
63739;BME280;68816;45.558;10.070;2023-10-09T00:52:44;100553.19;;;21.57;51.70
63739;BME280;68816;45.558;10.070;2023-10-09T00:55:19;100563.19;;;21.39;51.76
63739;BME280;68816;45.558;10.070;2023-10-09T00:58:05;100563.47;;;21.43;52.11
63739;BME280;68816;45.558;10.070;2023-10-09T01:00:38;100565.44;;;21.42;51.84
63739;BME280;68816;45.558;10.070;2023-10-09T01:03:11;100559.25;;;21.40;51.29
63739;BME280;68816;45.558;10.070;2023-10-09T01:05:43;100550.53;;;21.42;50.10
63739;BME280;68816;45.558;10.070;2023-10-09T01:08:39;100550.91;;;21.59;49.90
63739;BME280;68816;45.558;10.070;2023-10-09T01:11:06;100551.66;;;21.69;49.00
63739;BME280;68816;45.558;10.070;2023-10-09T01:13:39;100546.47;;;21.53;49.34
63739;BME280;68816;45.558;10.070;2023-10-09T01:16:22;100542.53;;;21.54;48.11
63739;BME280;68816;45.558;10.070;2023-10-09T01:18:53;100549.53;;;21.56;48.35
63739;BME280;68816;45.558;10.070;2023-10-09T01:21:20;100553.47;;;21.55;47.89
63739;BME280;68816;45.558;10.070;2023-10-09T01:23:50;100541.09;;;21.56;47.73
63739;BME280;68816;45.558;10.070;2023-10-09T01:26:32;100537.38;;;21.61;47.90
63739;BME280;68816;45.558;10.070;2023-10-09T01:29:07;100537.47;;;21.51;47.40
63739;BME280;68816;45.558;10.070;2023-10-09T01:31:50;100542.75;;;21.57;47.23
63739;BME280;68816;45.558;10.070;2023-10-09T01:34:33;100539.09;;;21.57;49.12
63739;BME280;68816;45.558;10.070;2023-10-09T01:37:16;100539.50;;;21.45;49.07
63739;BME280;68816;45.558;10.070;2023-10-09T01:39:54;100539.44;;;21.21;48.46
63739;BME280;68816;45.558;10.070;2023-10-09T01:42:25;100534.56;;;21.32;47.97
63739;BME280;68816;45.558;10.070;2023-10-09T01:44:53;100536.28;;;21.28;47.80
63739;BME280;68816;45.558;10.070;2023-10-09T01:47:19;100530.94;;;21.32;47.83
63739;BME280;68816;45.558;10.070;2023-10-09T01:49:47;100540.69;;;21.39;47.97
63739;BME280;68816;45.558;10.070;2023-10-09T01:52:18;100531.22;;;21.30;48.36
63739;BME280;68816;45.558;10.070;2023-10-09T01:54:45;100537.94;;;21.34;48.74
63739;BME280;68816;45.558;10.070;2023-10-09T01:57:27;100537.44;;;21.27;49.05
63739;BME280;68816;45.558;10.070;2023-10-09T01:59:55;100538.25;;;21.27;49.46
63739;BME280;68816;45.558;10.070;2023-10-09T02:02:24;100545.34;;;21.25;49.76
63739;BME280;68816;45.558;10.070;2023-10-09T02:04:51;100541.47;;;21.16;49.97
63739;BME280;68816;45.558;10.070;2023-10-09T02:07:17;100538.91;;;21.14;50.22
63739;BME280;68816;45.558;10.070;2023-10-09T02:09:52;100535.97;;;20.96;50.38
63739;BME280;68816;45.558;10.070;2023-10-09T02:12:19;100541.94;;;20.89;50.39
63739;BME280;68816;45.558;10.070;2023-10-09T02:14:47;100536.63;;;20.82;50.46
63739;BME280;68816;45.558;10.070;2023-10-09T02:17:13;100528.31;;;20.67;50.55
63739;BME280;68816;45.558;10.070;2023-10-09T02:19:45;100527.97;;;20.74;51.04
63739;BME280;68816;45.558;10.070;2023-10-09T02:22:14;100525.47;;;20.72;51.13
63739;BME280;68816;45.558;10.070;2023-10-09T02:24:41;100529.97;;;20.68;51.64
63739;BME280;68816;45.558;10.070;2023-10-09T02:27:18;100535.34;;;20.65;51.59
63739;BME280;68816;45.558;10.070;2023-10-09T02:30:06;100531.72;;;20.59;51.84
63739;BME280;68816;45.558;10.070;2023-10-09T02:32:44;100526.69;;;20.61;51.63
63739;BME280;68816;45.558;10.070;2023-10-09T02:35:13;100527.34;;;20.43;51.32
63739;BME280;68816;45.558;10.070;2023-10-09T02:38:04;100529.22;;;20.58;51.16
63739;BME280;68816;45.558;10.070;2023-10-09T02:40:34;100534.25;;;20.61;51.11
63739;BME280;68816;45.558;10.070;2023-10-09T02:43:20;100533.66;;;20.64;51.46
63739;BME280;68816;45.558;10.070;2023-10-09T02:45:46;100523.88;;;20.61;52.33
63739;BME280;68816;45.558;10.070;2023-10-09T02:48:20;100537.47;;;20.39;53.58
63739;BME280;68816;45.558;10.070;2023-10-09T02:50:46;100539.72;;;20.27;53.90
63739;BME280;68816;45.558;10.070;2023-10-09T02:53:12;100530.75;;;20.30;53.83
63739;BME280;68816;45.558;10.070;2023-10-09T02:55:45;100523.66;;;20.47;53.82
63739;BME280;68816;45.558;10.070;2023-10-09T02:58:33;100535.25;;;20.31;54.40
63739;BME280;68816;45.558;10.070;2023-10-09T03:01:02;100531.59;;;20.35;54.11
63739;BME280;68816;45.558;10.070;2023-10-09T03:03:28;100536.06;;;20.41;53.93
63739;BME280;68816;45.558;10.070;2023-10-09T03:05:53;100536.13;;;20.26;54.68
63739;BME280;68816;45.558;10.070;2023-10-09T03:08:19;100539.22;;;20.20;54.87
63739;BME280;68816;45.558;10.070;2023-10-09T03:10:45;100535.31;;;20.10;55.16
63739;BME280;68816;45.558;10.070;2023-10-09T03:13:10;100535.28;;;20.26;54.67
63739;BME280;68816;45.558;10.070;2023-10-09T03:15:38;100533.06;;;20.18;54.68
63739;BME280;68816;45.558;10.070;2023-10-09T03:18:04;100526.34;;;20.14;54.99
63739;BME280;68816;45.558;10.070;2023-10-09T03:20:30;100531.09;;;20.18;54.76
63739;BME280;68816;45.558;10.070;2023-10-09T03:22:56;100527.97;;;20.25;54.52
63739;BME280;68816;45.558;10.070;2023-10-09T03:25:23;100533.59;;;20.25;54.47
63739;BME280;68816;45.558;10.070;2023-10-09T03:27:52;100530.00;;;20.14;54.77
63739;BME280;68816;45.558;10.070;2023-10-09T03:30:21;100538.38;;;20.19;54.54
63739;BME280;68816;45.558;10.070;2023-10-09T03:32:51;100535.81;;;20.28;54.16
63739;BME280;68816;45.558;10.070;2023-10-09T03:35:21;100540.03;;;20.25;54.10
63739;BME280;68816;45.558;10.070;2023-10-09T03:37:56;100530.19;;;20.33;53.75
63739;BME280;68816;45.558;10.070;2023-10-09T03:40:43;100527.66;;;20.36;53.78
63739;BME280;68816;45.558;10.070;2023-10-09T03:43:10;100539.19;;;20.30;54.16
63739;BME280;68816;45.558;10.070;2023-10-09T03:45:36;100536.13;;;20.16;54.63
63739;BME280;68816;45.558;10.070;2023-10-09T03:48:04;100537.00;;;20.12;54.50
63739;BME280;68816;45.558;10.070;2023-10-09T03:50:33;100538.09;;;20.26;54.36
63739;BME280;68816;45.558;10.070;2023-10-09T03:53:05;100533.00;;;20.28;54.11
63739;BME280;68816;45.558;10.070;2023-10-09T03:55:38;100527.94;;;20.30;53.88
63739;BME280;68816;45.558;10.070;2023-10-09T03:58:08;100526.84;;;20.26;54.43
63739;BME280;68816;45.558;10.070;2023-10-09T04:00:37;100526.00;;;20.25;54.75
63739;BME280;68816;45.558;10.070;2023-10-09T04:03:15;100515.63;;;20.21;54.54
63739;BME280;68816;45.558;10.070;2023-10-09T04:05:41;100521.81;;;20.18;54.67
63739;BME280;68816;45.558;10.070;2023-10-09T04:08:12;100521.84;;;20.13;54.67
63739;BME280;68816;45.558;10.070;2023-10-09T04:10:39;100526.06;;;20.10;54.45
63739;BME280;68816;45.558;10.070;2023-10-09T04:13:19;100522.41;;;20.15;54.16
63739;BME280;68816;45.558;10.070;2023-10-09T04:15:51;100512.84;;;20.21;53.94
63739;BME280;68816;45.558;10.070;2023-10-09T04:18:20;100514.84;;;20.05;54.50
63739;BME280;68816;45.558;10.070;2023-10-09T04:20:46;100507.88;;;19.97;53.80
63739;BME280;68816;45.558;10.070;2023-10-09T04:23:30;100508.66;;;20.13;53.17
63739;BME280;68816;45.558;10.070;2023-10-09T04:26:21;100511.19;;;20.15;53.25
63739;BME280;68816;45.558;10.070;2023-10-09T04:28:50;100506.16;;;20.06;53.15
63739;BME280;68816;45.558;10.070;2023-10-09T04:31:19;100513.81;;;19.91;52.93
63739;BME280;68816;45.558;10.070;2023-10-09T04:33:46;100515.75;;;19.95;53.60
63739;BME280;68816;45.558;10.070;2023-10-09T04:36:23;100515.72;;;20.00;52.97
63739;BME280;68816;45.558;10.070;2023-10-09T04:38:53;100513.13;;;20.14;52.25
63739;BME280;68816;45.558;10.070;2023-10-09T04:41:28;100512.63;;;20.02;52.72
63739;BME280;68816;45.558;10.070;2023-10-09T04:43:57;100515.16;;;19.98;52.38
63739;BME280;68816;45.558;10.070;2023-10-09T04:46:41;100512.97;;;19.90;52.39
63739;BME280;68816;45.558;10.070;2023-10-09T04:49:10;100508.53;;;19.74;53.06
63739;BME280;68816;45.558;10.070;2023-10-09T04:51:54;100509.13;;;19.56;53.07
63739;BME280;68816;45.558;10.070;2023-10-09T04:54:44;100509.03;;;19.86;51.90
63739;BME280;68816;45.558;10.070;2023-10-09T04:57:43;100503.72;;;19.75;52.63
63739;BME280;68816;45.558;10.070;2023-10-09T05:00:13;100511.31;;;19.69;52.37
63739;BME280;68816;45.558;10.070;2023-10-09T05:03:00;100499.28;;;19.63;52.53
63739;BME280;68816;45.558;10.070;2023-10-09T05:05:50;100505.72;;;19.69;51.39
63739;BME280;68816;45.558;10.070;2023-10-09T05:08:23;100507.38;;;19.85;51.24
63739;BME280;68816;45.558;10.070;2023-10-09T05:10:56;100500.03;;;19.89;50.88
63739;BME280;68816;45.558;10.070;2023-10-09T05:13:24;100507.34;;;19.90;49.88
63739;BME280;68816;45.558;10.070;2023-10-09T05:16:16;100505.84;;;20.13;49.43
63739;BME280;68816;45.558;10.070;2023-10-09T05:18:51;100508.88;;;20.22;49.32
63739;BME280;68816;45.558;10.070;2023-10-09T05:21:40;100510.91;;;20.06;49.08
63739;BME280;68816;45.558;10.070;2023-10-09T05:24:08;100503.56;;;20.15;48.91
63739;BME280;68816;45.558;10.070;2023-10-09T05:26:48;100496.78;;;20.21;49.99
63739;BME280;68816;45.558;10.070;2023-10-09T05:29:26;100495.97;;;20.21;49.88
63739;BME280;68816;45.558;10.070;2023-10-09T05:31:54;100500.41;;;20.27;48.50
63739;BME280;68816;45.558;10.070;2023-10-09T05:34:29;100498.19;;;20.24;48.52
63739;BME280;68816;45.558;10.070;2023-10-09T05:37:13;100494.78;;;20.27;48.72
63739;BME280;68816;45.558;10.070;2023-10-09T05:39:55;100500.16;;;20.23;48.02
63739;BME280;68816;45.558;10.070;2023-10-09T05:42:28;100499.91;;;20.20;48.43
63739;BME280;68816;45.558;10.070;2023-10-09T05:45:12;100501.84;;;20.24;49.61
63739;BME280;68816;45.558;10.070;2023-10-09T05:47:56;100512.81;;;20.16;49.60
63739;BME280;68816;45.558;10.070;2023-10-09T05:50:27;100509.41;;;20.29;49.96
63739;BME280;68816;45.558;10.070;2023-10-09T05:52:54;100513.06;;;20.34;49.18
63739;BME280;68816;45.558;10.070;2023-10-09T05:55:21;100506.88;;;20.37;49.32
63739;BME280;68816;45.558;10.070;2023-10-09T05:57:51;100513.25;;;20.48;49.63
63739;BME280;68816;45.558;10.070;2023-10-09T06:00:28;100510.84;;;20.26;50.56
63739;BME280;68816;45.558;10.070;2023-10-09T06:03:14;100513.34;;;20.38;50.69
63739;BME280;68816;45.558;10.070;2023-10-09T06:05:49;100513.59;;;20.41;50.94
63739;BME280;68816;45.558;10.070;2023-10-09T06:08:25;100516.13;;;20.33;51.20
63739;BME280;68816;45.558;10.070;2023-10-09T06:11:10;100525.66;;;20.42;50.72
63739;BME280;68816;45.558;10.070;2023-10-09T06:13:55;100520.25;;;20.56;50.95
63739;BME280;68816;45.558;10.070;2023-10-09T06:16:38;100513.72;;;20.65;51.29
63739;BME280;68816;45.558;10.070;2023-10-09T06:19:10;100524.41;;;20.63;51.44
63739;BME280;68816;45.558;10.070;2023-10-09T06:21:46;100527.16;;;20.73;51.08
63739;BME280;68816;45.558;10.070;2023-10-09T06:24:21;100534.94;;;20.81;51.18
63739;BME280;68816;45.558;10.070;2023-10-09T06:27:21;100518.69;;;20.78;50.90
63739;BME280;68816;45.558;10.070;2023-10-09T06:29:57;100523.06;;;20.95;51.03
63739;BME280;68816;45.558;10.070;2023-10-09T06:32:40;100541.00;;;20.99;51.83
63739;BME280;68816;45.558;10.070;2023-10-09T06:35:46;100539.13;;;20.89;51.53
63739;BME280;68816;45.558;10.070;2023-10-09T06:38:21;100534.25;;;21.00;53.17
63739;BME280;68816;45.558;10.070;2023-10-09T06:40:51;100533.97;;;21.01;53.59
63739;BME280;68816;45.558;10.070;2023-10-09T06:43:20;100537.59;;;21.07;51.31
63739;BME280;68816;45.558;10.070;2023-10-09T06:45:47;100537.22;;;21.18;51.92
63739;BME280;68816;45.558;10.070;2023-10-09T06:48:24;100532.84;;;21.36;50.56
63739;BME280;68816;45.558;10.070;2023-10-09T06:51:10;100533.66;;;21.42;50.63
63739;BME280;68816;45.558;10.070;2023-10-09T06:53:55;100533.25;;;21.53;51.53
63739;BME280;68816;45.558;10.070;2023-10-09T06:56:22;100541.63;;;21.58;48.89
63739;BME280;68816;45.558;10.070;2023-10-09T06:59:11;100533.69;;;21.65;48.95
63739;BME280;68816;45.558;10.070;2023-10-09T07:01:48;100540.09;;;21.71;50.22
63739;BME280;68816;45.558;10.070;2023-10-09T07:04:36;100540.75;;;21.87;51.94
63739;BME280;68816;45.558;10.070;2023-10-09T07:07:02;100534.53;;;21.90;50.35
63739;BME280;68816;45.558;10.070;2023-10-09T07:09:49;100528.69;;;22.10;47.17
63739;BME280;68816;45.558;10.070;2023-10-09T07:12:40;100527.97;;;22.23;49.54
63739;BME280;68816;45.558;10.070;2023-10-09T07:15:09;100539.31;;;22.37;48.32
63739;BME280;68816;45.558;10.070;2023-10-09T07:17:37;100542.22;;;22.50;46.27
63739;BME280;68816;45.558;10.070;2023-10-09T07:20:03;100536.97;;;22.63;46.17
63739;BME280;68816;45.558;10.070;2023-10-09T07:22:36;100532.81;;;22.79;45.42
63739;BME280;68816;45.558;10.070;2023-10-09T07:25:22;100528.78;;;22.85;44.80
63739;BME280;68816;45.558;10.070;2023-10-09T07:28:09;100530.13;;;22.69;44.64
63739;BME280;68816;45.558;10.070;2023-10-09T07:30:54;100524.56;;;23.01;44.10
63739;BME280;68816;45.558;10.070;2023-10-09T07:33:23;100521.22;;;22.99;43.64
63739;BME280;68816;45.558;10.070;2023-10-09T07:36:01;100522.00;;;23.18;43.58
63739;BME280;68816;45.558;10.070;2023-10-09T07:38:31;100519.78;;;23.34;43.05
63739;BME280;68816;45.558;10.070;2023-10-09T07:41:10;100524.34;;;23.49;42.94
63739;BME280;68816;45.558;10.070;2023-10-09T07:43:37;100525.72;;;23.65;43.95
63739;BME280;68816;45.558;10.070;2023-10-09T07:46:18;100527.22;;;23.76;42.82
63739;BME280;68816;45.558;10.070;2023-10-09T07:49:04;100532.56;;;23.91;42.63
63739;BME280;68816;45.558;10.070;2023-10-09T07:51:40;100526.09;;;24.04;42.58
63739;BME280;68816;45.558;10.070;2023-10-09T07:54:09;100521.81;;;24.21;43.44
63739;BME280;68816;45.558;10.070;2023-10-09T07:56:43;100524.41;;;24.31;42.06
63739;BME280;68816;45.558;10.070;2023-10-09T07:59:12;100529.31;;;24.39;43.07
63739;BME280;68816;45.558;10.070;2023-10-09T08:01:49;100529.09;;;24.49;42.85
63739;BME280;68816;45.558;10.070;2023-10-09T08:04:24;100527.19;;;24.58;44.77
63739;BME280;68816;45.558;10.070;2023-10-09T08:07:10;100534.81;;;24.71;43.95
63739;BME280;68816;45.558;10.070;2023-10-09T08:09:47;100525.97;;;24.86;43.33
63739;BME280;68816;45.558;10.070;2023-10-09T08:12:36;100528.06;;;24.94;43.88
63739;BME280;68816;45.558;10.070;2023-10-09T08:15:23;100525.31;;;25.03;44.14
63739;BME280;68816;45.558;10.070;2023-10-09T08:18:00;100520.22;;;25.14;44.33
63739;BME280;68816;45.558;10.070;2023-10-09T08:20:30;100529.47;;;25.28;44.78
63739;BME280;68816;45.558;10.070;2023-10-09T08:23:22;100521.75;;;25.42;44.08
63739;BME280;68816;45.558;10.070;2023-10-09T08:26:06;100522.81;;;25.55;43.93
63739;BME280;68816;45.558;10.070;2023-10-09T08:28:39;100522.13;;;25.71;44.14
63739;BME280;68816;45.558;10.070;2023-10-09T08:31:15;100516.16;;;25.82;44.26
63739;BME280;68816;45.558;10.070;2023-10-09T08:33:59;100522.94;;;26.03;43.41
63739;BME280;68816;45.558;10.070;2023-10-09T08:36:25;100517.78;;;26.13;43.13
63739;BME280;68816;45.558;10.070;2023-10-09T08:38:56;100513.59;;;26.11;43.20
63739;BME280;68816;45.558;10.070;2023-10-09T08:41:24;100514.88;;;26.36;42.76
63739;BME280;68816;45.558;10.070;2023-10-09T08:43:53;100511.56;;;26.51;42.33
63739;BME280;68816;45.558;10.070;2023-10-09T08:46:21;100515.59;;;26.58;42.66
63739;BME280;68816;45.558;10.070;2023-10-09T08:48:48;100512.13;;;26.79;42.11
63739;BME280;68816;45.558;10.070;2023-10-09T08:51:14;100510.47;;;26.95;41.77
63739;BME280;68816;45.558;10.070;2023-10-09T08:53:39;100518.81;;;27.09;41.30
63739;BME280;68816;45.558;10.070;2023-10-09T08:56:21;100517.31;;;27.20;41.36
63739;BME280;68816;45.558;10.070;2023-10-09T08:58:55;100516.31;;;27.24;41.07
63739;BME280;68816;45.558;10.070;2023-10-09T09:01:21;100509.94;;;27.36;40.48
63739;BME280;68816;45.558;10.070;2023-10-09T09:03:49;100508.56;;;27.51;40.36
63739;BME280;68816;45.558;10.070;2023-10-09T09:06:18;100507.53;;;27.64;39.80
63739;BME280;68816;45.558;10.070;2023-10-09T09:08:45;100506.00;;;27.75;39.90
63739;BME280;68816;45.558;10.070;2023-10-09T09:11:14;100513.03;;;27.69;38.75
63739;BME280;68816;45.558;10.070;2023-10-09T09:13:44;100506.97;;;27.79;39.20
63739;BME280;68816;45.558;10.070;2023-10-09T09:16:17;100501.91;;;27.93;39.04
63739;BME280;68816;45.558;10.070;2023-10-09T09:19:03;100496.19;;;28.02;38.53
63739;BME280;68816;45.558;10.070;2023-10-09T09:21:41;100497.19;;;28.06;37.79
63739;BME280;68816;45.558;10.070;2023-10-09T09:24:11;100488.41;;;28.19;38.09
63739;BME280;68816;45.558;10.070;2023-10-09T09:26:44;100496.09;;;28.28;37.36
63739;BME280;68816;45.558;10.070;2023-10-09T09:29:14;100487.22;;;28.29;34.60
63739;BME280;68816;45.558;10.070;2023-10-09T09:32:10;100482.06;;;28.23;28.99
63739;BME280;68816;45.558;10.070;2023-10-09T09:34:50;100483.00;;;28.35;29.37
63739;BME280;68816;45.558;10.070;2023-10-09T09:37:29;100483.88;;;28.27;27.94
63739;BME280;68816;45.558;10.070;2023-10-09T09:40:17;100479.00;;;28.28;27.97
63739;BME280;68816;45.558;10.070;2023-10-09T09:42:59;100474.47;;;28.35;28.08
63739;BME280;68816;45.558;10.070;2023-10-09T09:45:32;100474.75;;;28.63;28.20
63739;BME280;68816;45.558;10.070;2023-10-09T09:48:02;100477.28;;;28.85;28.40
63739;BME280;68816;45.558;10.070;2023-10-09T09:50:32;100480.69;;;28.99;27.83
63739;BME280;68816;45.558;10.070;2023-10-09T09:52:59;100470.00;;;28.76;27.70
63739;BME280;68816;45.558;10.070;2023-10-09T09:55:32;100465.19;;;28.88;27.25
63739;BME280;68816;45.558;10.070;2023-10-09T09:58:01;100467.19;;;29.09;28.38
63739;BME280;68816;45.558;10.070;2023-10-09T10:00:33;100467.50;;;29.28;29.23
63739;BME280;68816;45.558;10.070;2023-10-09T10:03:14;100470.78;;;29.18;28.61
63739;BME280;68816;45.558;10.070;2023-10-09T10:05:43;100463.03;;;29.18;27.44
63739;BME280;68816;45.558;10.070;2023-10-09T10:08:15;100457.56;;;29.34;28.14
63739;BME280;68816;45.558;10.070;2023-10-09T10:10:45;100461.75;;;29.49;29.45
63739;BME280;68816;45.558;10.070;2023-10-09T10:16:12;100451.13;;;29.70;27.97
63739;BME280;68816;45.558;10.070;2023-10-09T10:18:55;100453.59;;;29.84;28.47
63739;BME280;68816;45.558;10.070;2023-10-09T10:21:26;100459.34;;;29.96;28.01
63739;BME280;68816;45.558;10.070;2023-10-09T10:24:01;100446.34;;;29.74;27.75
63739;BME280;68816;45.558;10.070;2023-10-09T10:26:35;100446.03;;;30.00;27.88
63739;BME280;68816;45.558;10.070;2023-10-09T10:32:03;100441.38;;;30.19;27.84
63739;BME280;68816;45.558;10.070;2023-10-09T10:34:52;100436.84;;;30.43;27.55
63739;BME280;68816;45.558;10.070;2023-10-09T10:37:37;100436.03;;;30.30;26.63
63739;BME280;68816;45.558;10.070;2023-10-09T10:40:09;100425.56;;;30.34;27.46
63739;BME280;68816;45.558;10.070;2023-10-09T10:43:00;100426.28;;;30.07;27.20
63739;BME280;68816;45.558;10.070;2023-10-09T10:45:35;100424.63;;;30.06;26.92
63739;BME280;68816;45.558;10.070;2023-10-09T10:48:08;100414.66;;;29.88;27.70
63739;BME280;68816;45.558;10.070;2023-10-09T10:50:35;100415.47;;;30.25;27.68
63739;BME280;68816;45.558;10.070;2023-10-09T10:53:27;100415.31;;;30.45;27.58
63739;BME280;68816;45.558;10.070;2023-10-09T10:56:01;100414.84;;;30.55;27.32
63739;BME280;68816;45.558;10.070;2023-10-09T10:58:39;100405.72;;;30.26;28.40
63739;BME280;68816;45.558;10.070;2023-10-09T11:01:34;100400.97;;;30.70;27.74
63739;BME280;68816;45.558;10.070;2023-10-09T11:04:29;100391.00;;;31.19;27.11
63739;BME280;68816;45.558;10.070;2023-10-09T11:06:58;100387.69;;;32.11;25.39
63739;BME280;68816;45.558;10.070;2023-10-09T11:09:52;100379.44;;;33.18;23.91
63739;BME280;68816;45.558;10.070;2023-10-09T11:12:50;100375.56;;;34.02;22.75
63739;BME280;68816;45.558;10.070;2023-10-09T11:15:31;100377.22;;;34.03;22.08
63739;BME280;68816;45.558;10.070;2023-10-09T11:18:17;100364.47;;;34.83;21.74
63739;BME280;68816;45.558;10.070;2023-10-09T11:20:56;100360.28;;;35.54;21.41
63739;BME280;68816;45.558;10.070;2023-10-09T11:23:29;100363.66;;;35.19;21.37
63739;BME280;68816;45.558;10.070;2023-10-09T11:26:03;100359.03;;;35.11;21.71
63739;BME280;68816;45.558;10.070;2023-10-09T11:29:12;100351.09;;;36.37;20.58
63739;BME280;68816;45.558;10.070;2023-10-09T11:32:01;100356.38;;;35.29;20.68
63739;BME280;68816;45.558;10.070;2023-10-09T11:34:28;100348.19;;;36.37;19.97
63739;BME280;68816;45.558;10.070;2023-10-09T11:37:14;100345.47;;;36.65;20.25
63739;BME280;68816;45.558;10.070;2023-10-09T11:39:58;100340.34;;;36.30;20.31
63739;BME280;68816;45.558;10.070;2023-10-09T11:42:29;100335.63;;;36.73;19.99
63739;BME280;68816;45.558;10.070;2023-10-09T11:45:22;100328.28;;;36.14;20.45
63739;BME280;68816;45.558;10.070;2023-10-09T11:47:55;100324.25;;;37.51;18.80
63739;BME280;68816;45.558;10.070;2023-10-09T11:53:22;100325.94;;;39.14;18.34
63739;BME280;68816;45.558;10.070;2023-10-09T11:55:48;100322.94;;;38.34;18.05
63739;BME280;68816;45.558;10.070;2023-10-09T11:58:20;100311.63;;;38.82;17.67
63739;BME280;68816;45.558;10.070;2023-10-09T12:00:57;100304.66;;;39.41;17.74
63739;BME280;68816;45.558;10.070;2023-10-09T12:03:29;100300.47;;;39.94;17.05
63739;BME280;68816;45.558;10.070;2023-10-09T12:05:56;100292.53;;;39.02;18.34
63739;BME280;68816;45.558;10.070;2023-10-09T12:08:25;100288.81;;;37.19;20.52
63739;BME280;68816;45.558;10.070;2023-10-09T12:10:54;100287.75;;;35.82;22.25
63739;BME280;68816;45.558;10.070;2023-10-09T12:13:24;100288.31;;;35.98;22.20
63739;BME280;68816;45.558;10.070;2023-10-09T12:15:51;100286.44;;;34.84;22.45
63739;BME280;68816;45.558;10.070;2023-10-09T12:18:18;100268.91;;;35.37;22.62
63739;BME280;68816;45.558;10.070;2023-10-09T12:20:45;100284.00;;;34.86;21.85
63739;BME280;68816;45.558;10.070;2023-10-09T12:23:27;100276.22;;;35.27;20.91
63739;BME280;68816;45.558;10.070;2023-10-09T12:25:53;100270.69;;;37.57;19.77
63739;BME280;68816;45.558;10.070;2023-10-09T12:28:22;100269.44;;;37.58;18.61
63739;BME280;68816;45.558;10.070;2023-10-09T12:30:48;100266.47;;;38.18;18.04
63739;BME280;68816;45.558;10.070;2023-10-09T12:33:18;100258.03;;;39.73;16.73
63739;BME280;68816;45.558;10.070;2023-10-09T12:35:45;100259.78;;;39.64;16.88
63739;BME280;68816;45.558;10.070;2023-10-09T12:38:11;100253.53;;;40.44;15.98
63739;BME280;68816;45.558;10.070;2023-10-09T12:40:38;100257.38;;;39.96;16.27
63739;BME280;68816;45.558;10.070;2023-10-09T12:43:06;100245.66;;;41.01;15.54
63739;BME280;68816;45.558;10.070;2023-10-09T12:45:43;100249.97;;;40.93;16.02
63739;BME280;68816;45.558;10.070;2023-10-09T12:48:10;100246.66;;;40.31;16.26
63739;BME280;68816;45.558;10.070;2023-10-09T12:50:36;100244.53;;;40.69;15.47
63739;BME280;68816;45.558;10.070;2023-10-09T12:53:11;100236.13;;;40.44;15.77
63739;BME280;68816;45.558;10.070;2023-10-09T12:55:42;100232.03;;;40.98;15.43
63739;BME280;68816;45.558;10.070;2023-10-09T12:58:09;100219.59;;;41.71;15.08
63739;BME280;68816;45.558;10.070;2023-10-09T13:00:40;100224.59;;;41.71;15.09
63739;BME280;68816;45.558;10.070;2023-10-09T13:03:17;100227.22;;;39.94;17.51
63739;BME280;68816;45.558;10.070;2023-10-09T13:05:51;100221.50;;;38.00;19.29
63739;BME280;68816;45.558;10.070;2023-10-09T13:08:25;100215.38;;;37.83;19.64
63739;BME280;68816;45.558;10.070;2023-10-09T13:11:01;100217.50;;;37.33;19.98
63739;BME280;68816;45.558;10.070;2023-10-09T13:13:29;100220.38;;;37.62;19.69
63739;BME280;68816;45.558;10.070;2023-10-09T13:16:16;100205.72;;;36.16;20.52
63739;BME280;68816;45.558;10.070;2023-10-09T13:18:49;100202.50;;;36.36;20.11
63739;BME280;68816;45.558;10.070;2023-10-09T13:21:19;100203.84;;;36.74;20.27
63739;BME280;68816;45.558;10.070;2023-10-09T13:23:44;100198.13;;;37.09;19.44
63739;BME280;68816;45.558;10.070;2023-10-09T13:26:18;100199.78;;;37.24;18.83
63739;BME280;68816;45.558;10.070;2023-10-09T13:28:47;100202.44;;;39.89;16.53